createdAt,value
2022-10-12T00:00:25.403Z,9.34
2022-10-12T00:01:25.426Z,9.34
2022-10-12T00:02:25.383Z,9.27
2022-10-12T00:03:25.370Z,9.34
2022-10-12T00:04:25.385Z,9.29
2022-10-12T00:05:25.347Z,9.36
2022-10-12T00:06:25.344Z,9.27
2022-10-12T00:07:25.331Z,9.23
2022-10-12T00:08:25.316Z,9.33
2022-10-12T00:09:25.320Z,9.16
2022-10-12T00:10:25.315Z,9.22
2022-10-12T00:11:25.285Z,9.19
2022-10-12T00:12:25.270Z,9.18
2022-10-12T00:13:25.264Z,9.23
2022-10-12T00:14:25.281Z,9.14
2022-10-12T00:15:25.287Z,9.24
2022-10-12T00:16:25.231Z,9.15
2022-10-12T00:17:25.218Z,9.22
2022-10-12T00:18:25.209Z,9.12
2022-10-12T00:19:25.226Z,9.15
2022-10-12T00:20:25.211Z,9.12
2022-10-12T00:21:25.178Z,9.19
2022-10-12T00:22:25.163Z,9.15
2022-10-12T00:23:25.154Z,9.11
2022-10-12T00:24:25.139Z,9.14
2022-10-12T00:25:25.159Z,9.09
2022-10-12T00:26:25.150Z,9.12
2022-10-12T00:27:25.110Z,9.04
2022-10-12T00:28:25.151Z,9.12
2022-10-12T00:29:25.089Z,9.12
2022-10-12T00:30:25.106Z,9.09
2022-10-12T00:31:25.071Z,9.01
2022-10-12T00:32:25.054Z,9.04
2022-10-12T00:33:25.050Z,9.06
2022-10-12T00:34:25.062Z,9.06
2022-10-12T00:35:25.049Z,9.01
2022-10-12T00:36:25.012Z,8.99
2022-10-12T00:37:25.003Z,8.98
2022-10-12T00:38:24.995Z,8.92
2022-10-12T00:39:24.984Z,8.99
2022-10-12T00:40:24.994Z,8.90
2022-10-12T00:41:24.958Z,8.89
2022-10-12T00:42:24.972Z,8.95
2022-10-12T00:43:24.940Z,8.89
2022-10-12T00:44:24.924Z,8.89
2022-10-12T00:45:24.935Z,8.96
2022-10-12T00:46:24.912Z,8.92
2022-10-12T00:47:24.893Z,8.95
2022-10-12T00:48:24.890Z,8.88
2022-10-12T00:49:24.873Z,8.88
2022-10-12T00:50:24.887Z,8.86
2022-10-12T00:51:24.871Z,8.88
2022-10-12T00:52:24.839Z,8.85
2022-10-12T00:53:24.839Z,8.77
2022-10-12T00:54:24.818Z,8.77
2022-10-12T00:55:24.819Z,8.81
2022-10-12T00:56:24.818Z,8.85
2022-10-12T00:57:24.791Z,8.80
2022-10-12T00:58:24.801Z,8.85
2022-10-12T00:59:24.766Z,8.85
2022-10-12T01:00:24.774Z,8.75
2022-10-12T01:01:24.865Z,8.72
2022-10-12T01:02:24.735Z,8.77
2022-10-12T01:03:24.720Z,8.71
2022-10-12T01:04:24.722Z,8.75
2022-10-12T01:05:24.699Z,8.72
2022-10-12T01:06:24.710Z,8.70
2022-10-12T01:07:24.687Z,8.70
2022-10-12T01:08:24.668Z,8.68
2022-10-12T01:09:24.654Z,8.65
2022-10-12T01:10:24.646Z,8.67
2022-10-12T01:11:24.663Z,8.71
2022-10-12T01:12:24.635Z,8.65
2022-10-12T01:13:24.612Z,8.60
2022-10-12T01:14:24.624Z,8.63
2022-10-12T01:15:24.587Z,8.62
2022-10-12T01:16:24.607Z,8.62
2022-10-12T01:17:24.569Z,8.59
2022-10-12T01:18:24.565Z,8.62
2022-10-12T01:19:24.552Z,8.57
2022-10-12T01:20:24.536Z,8.60
2022-10-12T01:21:24.556Z,8.60
2022-10-12T01:22:24.521Z,8.50
2022-10-12T01:23:24.507Z,8.50
2022-10-12T01:24:24.501Z,8.50
2022-10-12T01:25:24.506Z,8.52
2022-10-12T01:26:24.518Z,8.50
2022-10-12T01:27:24.461Z,8.53
2022-10-12T01:28:24.561Z,8.46
2022-10-12T01:29:24.436Z,8.52
2022-10-12T01:30:24.455Z,8.42
2022-10-12T01:31:26.596Z,8.44
2022-10-12T01:32:25.437Z,8.50
2022-10-12T01:33:24.397Z,8.46
2022-10-12T01:34:24.386Z,8.39
2022-10-12T01:35:24.396Z,8.44
2022-10-12T01:36:24.369Z,8.42
2022-10-12T01:37:24.355Z,8.38
2022-10-12T01:38:24.342Z,8.41
2022-10-12T01:39:24.337Z,8.38
2022-10-12T01:40:24.344Z,8.38
2022-10-12T01:41:24.309Z,8.39
2022-10-12T01:42:24.328Z,8.37
2022-10-12T01:43:24.294Z,8.38
2022-10-12T01:44:24.282Z,8.41
2022-10-12T01:45:24.270Z,8.42
2022-10-12T01:46:24.278Z,8.34
2022-10-12T01:47:24.269Z,8.39
2022-10-12T01:48:24.240Z,8.31
2022-10-12T01:49:24.222Z,8.35
2022-10-12T01:50:24.217Z,8.32
2022-10-12T01:51:24.210Z,8.39
2022-10-12T01:52:24.213Z,8.31
2022-10-12T01:53:24.185Z,8.31
2022-10-12T01:54:24.172Z,8.28
2022-10-12T01:55:24.160Z,8.23
2022-10-12T01:56:24.149Z,8.28
2022-10-12T01:57:24.159Z,8.35
2022-10-12T01:58:24.130Z,8.26
2022-10-12T01:59:24.251Z,8.26
2022-10-12T02:00:24.108Z,8.28
2022-10-12T02:01:24.171Z,8.28
2022-10-12T02:02:24.108Z,8.28
2022-10-12T02:03:24.070Z,8.24
2022-10-12T02:04:24.067Z,8.23
2022-10-12T02:05:24.074Z,8.26
2022-10-12T02:06:24.040Z,8.23
2022-10-12T02:07:24.027Z,8.19
2022-10-12T02:08:24.043Z,8.20
2022-10-12T02:09:24.009Z,8.19
2022-10-12T02:10:23.996Z,8.12
2022-10-12T02:11:23.986Z,8.14
2022-10-12T02:12:23.973Z,8.12
2022-10-12T02:13:23.984Z,8.16
2022-10-12T02:14:23.952Z,8.12
2022-10-12T02:15:23.946Z,8.16
2022-10-12T02:16:23.935Z,8.17
2022-10-12T02:17:23.956Z,8.12
2022-10-12T02:18:23.931Z,8.10
2022-10-12T02:19:23.899Z,8.12
2022-10-12T02:20:23.893Z,8.12
2022-10-12T02:21:23.877Z,8.05
2022-10-12T02:22:23.869Z,8.12
2022-10-12T02:23:23.875Z,8.05
2022-10-12T02:24:23.844Z,8.06
2022-10-12T02:25:23.834Z,7.98
2022-10-12T02:26:23.819Z,8.06
2022-10-12T02:27:23.805Z,7.99
2022-10-12T02:28:23.895Z,8.02
2022-10-12T02:29:23.787Z,8.02
2022-10-12T02:30:23.778Z,7.99
2022-10-12T02:31:23.781Z,7.98
2022-10-12T02:32:23.755Z,7.96
2022-10-12T02:33:23.769Z,7.98
2022-10-12T02:34:23.772Z,7.99
2022-10-12T02:35:23.724Z,8.02
2022-10-12T02:36:23.712Z,7.86
2022-10-12T02:37:23.707Z,7.83
2022-10-12T02:38:23.716Z,7.98
2022-10-12T02:39:23.690Z,7.88
2022-10-12T02:40:23.670Z,7.94
2022-10-12T02:41:23.658Z,7.86
2022-10-12T02:42:23.655Z,7.87
2022-10-12T02:43:23.661Z,7.88
2022-10-12T02:44:23.622Z,7.86
2022-10-12T02:45:23.612Z,7.88
2022-10-12T02:46:23.604Z,7.96
2022-10-12T02:47:23.596Z,7.87
2022-10-12T02:48:23.602Z,7.94
2022-10-12T02:49:23.567Z,7.87
2022-10-12T02:50:23.578Z,7.86
2022-10-12T02:51:23.552Z,7.87
2022-10-12T02:52:23.542Z,7.77
2022-10-12T02:53:23.561Z,7.74
2022-10-12T02:54:23.517Z,7.78
2022-10-12T02:55:23.503Z,7.78
2022-10-12T02:56:23.499Z,7.77
2022-10-12T02:57:23.481Z,7.78
2022-10-12T02:58:23.471Z,7.77
2022-10-12T02:59:23.478Z,7.83
2022-10-12T03:00:23.448Z,7.78
2022-10-12T03:01:23.493Z,7.78
2022-10-12T03:02:23.432Z,7.77
2022-10-12T03:03:23.419Z,7.76
2022-10-12T03:04:23.424Z,7.74
2022-10-12T03:05:23.419Z,7.76
2022-10-12T03:06:23.402Z,7.68
2022-10-12T03:07:23.371Z,7.71
2022-10-12T03:08:23.363Z,7.64
2022-10-12T03:09:23.376Z,7.73
2022-10-12T03:10:23.338Z,7.73
2022-10-12T03:11:23.330Z,7.73
2022-10-12T03:12:23.317Z,7.71
2022-10-12T03:13:23.304Z,7.62
2022-10-12T03:14:23.320Z,7.73
2022-10-12T03:15:23.284Z,7.74
2022-10-12T03:16:23.272Z,7.69
2022-10-12T03:17:23.257Z,7.71
2022-10-12T03:18:23.249Z,7.73
2022-10-12T03:19:23.265Z,7.71
2022-10-12T03:20:23.234Z,7.66
2022-10-12T03:21:23.220Z,7.69
2022-10-12T03:22:23.231Z,7.68
2022-10-12T03:23:23.195Z,7.64
2022-10-12T03:24:23.210Z,7.62
2022-10-12T03:25:23.178Z,7.62
2022-10-12T03:26:23.244Z,7.61
2022-10-12T03:27:23.153Z,7.66
2022-10-12T03:28:23.188Z,7.68
2022-10-12T03:29:23.130Z,7.62
2022-10-12T03:30:23.146Z,7.62
2022-10-12T03:31:23.111Z,7.60
2022-10-12T03:32:23.098Z,7.52
2022-10-12T03:33:23.094Z,7.60
2022-10-12T03:34:23.081Z,7.62
2022-10-12T03:35:23.092Z,7.49
2022-10-12T03:36:23.060Z,7.61
2022-10-12T03:37:23.054Z,7.55
2022-10-12T03:38:23.058Z,7.64
2022-10-12T03:39:23.026Z,7.54
2022-10-12T03:40:23.049Z,7.54
2022-10-12T03:41:23.007Z,7.54
2022-10-12T03:42:22.995Z,7.50
2022-10-12T03:43:22.984Z,7.52
2022-10-12T03:44:22.976Z,7.47
2022-10-12T03:45:22.984Z,7.47
2022-10-12T03:46:22.976Z,7.46
2022-10-12T03:47:22.942Z,7.44
2022-10-12T03:48:22.937Z,7.47
2022-10-12T03:49:22.919Z,7.54
2022-10-12T03:50:22.910Z,7.49
2022-10-12T03:51:22.920Z,7.54
2022-10-12T03:52:22.890Z,7.44
2022-10-12T03:53:22.880Z,7.49
2022-10-12T03:54:22.886Z,7.43
2022-10-12T03:55:22.859Z,7.40
2022-10-12T03:56:22.872Z,7.46
2022-10-12T03:57:22.838Z,7.42
2022-10-12T03:58:22.823Z,7.40
2022-10-12T03:59:22.815Z,7.44
2022-10-12T04:00:22.805Z,7.37
2022-10-12T04:01:22.884Z,7.44
2022-10-12T04:02:22.784Z,7.40
2022-10-12T04:03:22.774Z,7.42
2022-10-12T04:04:22.764Z,7.39
2022-10-12T04:05:22.754Z,7.36
2022-10-12T04:06:22.764Z,7.33
2022-10-12T04:07:22.728Z,7.28
2022-10-12T04:08:22.728Z,7.29
2022-10-12T04:09:22.709Z,7.29
2022-10-12T04:10:22.716Z,7.33
2022-10-12T04:11:22.700Z,7.37
2022-10-12T04:12:22.679Z,7.29
2022-10-12T04:13:22.688Z,7.34
2022-10-12T04:14:22.655Z,7.28
2022-10-12T04:16:24.140Z,7.22
2022-10-12T04:17:22.647Z,7.28
2022-10-12T04:18:22.614Z,7.26
2022-10-12T04:19:22.604Z,7.25
2022-10-12T04:20:22.602Z,7.31
2022-10-12T04:21:22.579Z,7.24
2022-10-12T04:22:22.590Z,7.29
2022-10-12T04:23:22.558Z,7.25
2022-10-12T04:24:22.550Z,7.28
2022-10-12T04:25:25.303Z,7.16
2022-10-12T04:26:23.548Z,7.26
2022-10-12T04:27:22.545Z,7.19
2022-10-12T04:28:22.571Z,7.19
2022-10-12T04:29:22.493Z,7.22
2022-10-12T04:30:22.479Z,7.15
2022-10-12T04:31:22.471Z,7.24
2022-10-12T04:32:22.489Z,7.18
2022-10-12T04:33:22.448Z,7.16
2022-10-12T04:34:22.444Z,7.16
2022-10-12T04:35:22.427Z,7.19
2022-10-12T04:36:22.423Z,7.18
2022-10-12T04:37:22.433Z,7.16
2022-10-12T04:38:22.424Z,7.19
2022-10-12T04:39:22.391Z,7.16
2022-10-12T04:40:22.375Z,7.08
2022-10-12T04:41:22.372Z,7.15
2022-10-12T04:42:22.375Z,7.10
2022-10-12T04:43:22.367Z,7.08
2022-10-12T04:44:22.341Z,7.13
2022-10-12T04:45:22.319Z,7.04
2022-10-12T04:46:22.315Z,7.07
2022-10-12T04:47:22.306Z,7.11
2022-10-12T04:48:22.320Z,6.92
2022-10-12T04:49:22.285Z,7.10
2022-10-12T04:50:26.222Z,7.03
2022-10-12T04:51:23.258Z,7.08
2022-10-12T04:52:22.254Z,6.96
2022-10-12T04:53:22.261Z,7.00
2022-10-12T04:54:22.229Z,7.01
2022-10-12T04:55:22.220Z,7.03
2022-10-12T04:56:22.212Z,7.00
2022-10-12T04:57:22.217Z,7.00
2022-10-12T04:58:22.224Z,6.97
2022-10-12T04:59:22.199Z,7.00
2022-10-12T05:00:22.164Z,7.04
2022-10-12T05:01:22.209Z,7.00
2022-10-12T05:02:22.143Z,6.89
2022-10-12T05:03:22.156Z,7.03
2022-10-12T05:04:22.234Z,6.97
2022-10-12T05:05:22.112Z,6.92
2022-10-12T05:06:22.106Z,6.89
2022-10-12T05:07:22.092Z,6.93
2022-10-12T05:08:22.106Z,6.91
2022-10-12T05:09:22.110Z,7.00
2022-10-12T05:10:22.062Z,6.85
2022-10-12T05:11:22.055Z,6.83
2022-10-12T05:12:22.037Z,6.85
2022-10-12T05:13:22.036Z,6.88
2022-10-12T05:14:22.033Z,6.86
2022-10-12T05:15:22.030Z,6.82
2022-10-12T05:16:21.995Z,6.79
2022-10-12T05:17:22.003Z,6.85
2022-10-12T05:18:21.975Z,6.85
2022-10-12T05:19:21.980Z,6.82
2022-10-12T05:20:21.960Z,6.81
2022-10-12T05:21:21.942Z,6.78
2022-10-12T05:22:21.949Z,6.85
2022-10-12T05:23:21.924Z,6.85
2022-10-12T05:24:21.963Z,6.83
2022-10-12T05:25:21.905Z,6.85
2022-10-12T05:26:21.895Z,6.79
2022-10-12T05:27:21.886Z,6.79
2022-10-12T05:28:21.950Z,6.78
2022-10-12T05:29:21.894Z,6.79
2022-10-12T05:30:21.869Z,6.79
2022-10-12T05:31:21.843Z,6.79
2022-10-12T05:32:21.831Z,6.75
2022-10-12T05:33:21.818Z,6.82
2022-10-12T05:34:21.804Z,6.70
2022-10-12T05:35:21.822Z,6.79
2022-10-12T05:36:21.791Z,6.75
2022-10-12T05:37:21.777Z,6.70
2022-10-12T05:38:21.766Z,6.78
2022-10-12T05:39:21.754Z,6.67
2022-10-12T05:40:21.770Z,6.74
2022-10-12T05:41:21.730Z,6.78
2022-10-12T05:42:21.718Z,6.65
2022-10-12T05:43:21.734Z,6.81
2022-10-12T05:44:21.704Z,6.64
2022-10-12T05:45:21.719Z,6.67
2022-10-12T05:46:21.706Z,6.65
2022-10-12T05:47:21.673Z,6.67
2022-10-12T05:48:21.664Z,6.71
2022-10-12T05:49:21.649Z,6.67
2022-10-12T05:50:21.658Z,6.65
2022-10-12T05:51:25.291Z,6.73
2022-10-12T05:52:22.633Z,6.64
2022-10-12T05:53:21.606Z,6.65
2022-10-12T05:54:21.616Z,6.60
2022-10-12T05:55:21.587Z,6.70
2022-10-12T05:56:21.574Z,6.68
2022-10-12T05:57:21.565Z,6.68
2022-10-12T05:58:21.552Z,6.65
2022-10-12T05:59:21.569Z,6.63
2022-10-12T06:00:21.530Z,6.63
2022-10-12T06:01:21.572Z,6.60
2022-10-12T06:02:21.530Z,6.63
2022-10-12T06:03:25.786Z,6.65
2022-10-12T06:04:21.493Z,6.52
2022-10-12T06:05:21.476Z,6.61
2022-10-12T06:06:21.465Z,6.63
2022-10-12T06:07:21.457Z,6.67
2022-10-12T06:08:21.470Z,6.68
2022-10-12T06:09:21.434Z,6.68
2022-10-12T06:10:24.237Z,6.65
2022-10-12T06:11:21.414Z,6.56
2022-10-12T06:12:21.401Z,6.55
2022-10-12T06:13:21.393Z,6.52
2022-10-12T06:14:21.387Z,6.64
2022-10-12T06:15:21.387Z,6.64
2022-10-12T06:16:21.362Z,6.68
2022-10-12T06:17:21.353Z,6.57
2022-10-12T06:18:21.363Z,6.60
2022-10-12T06:19:21.329Z,6.47
2022-10-12T06:20:21.422Z,6.61
2022-10-12T06:21:33.142Z,6.64
2022-10-12T06:22:22.300Z,6.63
2022-10-12T06:23:21.293Z,6.67
2022-10-12T06:24:21.283Z,6.60
2022-10-12T06:25:21.286Z,6.63
2022-10-12T06:26:21.259Z,6.57
2022-10-12T06:27:21.246Z,6.60
2022-10-12T06:28:21.263Z,6.64
2022-10-12T06:29:21.225Z,6.52
2022-10-12T06:30:21.242Z,6.61
2022-10-12T06:31:21.204Z,6.63
2022-10-12T06:32:21.193Z,6.63
2022-10-12T06:33:21.182Z,6.63
2022-10-12T06:34:21.196Z,6.64
2022-10-12T06:35:21.191Z,6.56
2022-10-12T06:36:21.153Z,6.64
2022-10-12T06:37:47.997Z,6.60
2022-10-12T06:38:22.132Z,6.63
2022-10-12T06:39:21.121Z,6.60
2022-10-12T06:40:21.108Z,6.60
2022-10-12T06:41:21.120Z,6.63
2022-10-12T06:42:21.097Z,6.65
2022-10-12T06:43:21.072Z,6.63
2022-10-12T06:44:21.069Z,6.64
2022-10-12T06:45:21.055Z,6.64
2022-10-12T06:46:21.075Z,6.65
2022-10-12T06:47:21.038Z,6.60
2022-10-12T06:48:21.028Z,6.60
2022-10-12T06:49:21.013Z,6.65
2022-10-12T06:50:21.063Z,6.68
2022-10-12T06:51:21.013Z,6.68
2022-10-12T06:52:20.980Z,6.60
2022-10-12T06:53:20.970Z,6.63
2022-10-12T06:54:20.960Z,6.63
2022-10-12T06:55:20.968Z,6.73
2022-10-12T06:56:20.943Z,6.64
2022-10-12T06:57:20.929Z,6.64
2022-10-12T06:58:20.920Z,6.63
2022-10-12T06:59:20.904Z,6.67
2022-10-12T07:00:20.917Z,6.64
2022-10-12T07:01:20.945Z,6.64
2022-10-12T07:02:20.898Z,6.65
2022-10-12T07:03:20.866Z,6.67
2022-10-12T07:04:20.854Z,6.64
2022-10-12T07:05:20.843Z,6.71
2022-10-12T07:06:20.850Z,6.68
2022-10-12T07:07:20.849Z,6.55
2022-10-12T07:08:20.809Z,6.68
2022-10-12T07:09:20.802Z,6.75
2022-10-12T07:10:20.790Z,6.65
2022-10-12T07:11:20.783Z,6.68
2022-10-12T07:12:20.799Z,6.73
2022-10-12T07:13:20.758Z,6.74
2022-10-12T07:14:20.744Z,6.65
2022-10-12T07:15:20.753Z,6.79
2022-10-12T07:16:20.727Z,6.78
2022-10-12T07:17:20.716Z,6.75
2022-10-12T07:18:20.728Z,6.71
2022-10-12T07:19:20.722Z,6.74
2022-10-12T07:20:20.683Z,6.82
2022-10-12T07:21:20.676Z,6.81
2022-10-12T07:22:20.687Z,6.81
2022-10-12T07:23:20.651Z,6.78
2022-10-12T07:24:20.675Z,6.88
2022-10-12T07:25:20.630Z,6.85
2022-10-12T07:26:20.625Z,6.85
2022-10-12T07:27:20.609Z,6.86
2022-10-12T07:28:20.641Z,6.86
2022-10-12T07:29:20.591Z,6.85
2022-10-12T07:30:20.595Z,6.92
2022-10-12T07:31:20.579Z,6.86
2022-10-12T07:32:20.575Z,6.92
2022-10-12T07:33:20.549Z,6.89
2022-10-12T07:34:20.563Z,6.99
2022-10-12T07:35:20.527Z,7.00
2022-10-12T07:36:21.874Z,6.96
2022-10-12T07:37:20.504Z,7.00
2022-10-12T07:38:20.521Z,7.00
2022-10-12T07:39:20.511Z,6.93
2022-10-12T07:40:20.496Z,7.03
2022-10-12T07:41:20.463Z,7.10
2022-10-12T07:42:20.448Z,7.06
2022-10-12T07:43:20.451Z,7.11
2022-10-12T07:44:21.041Z,7.13
2022-10-12T07:45:20.442Z,7.19
2022-10-12T07:46:20.408Z,7.15
2022-10-12T07:47:20.417Z,7.16
2022-10-12T07:48:20.383Z,7.21
2022-10-12T07:49:20.376Z,7.22
2022-10-12T07:50:20.380Z,7.19
2022-10-12T07:51:20.356Z,7.21
2022-10-12T07:52:20.368Z,7.22
2022-10-12T07:53:20.339Z,7.22
2022-10-12T07:54:23.529Z,7.22
2022-10-12T07:55:21.344Z,7.28
2022-10-12T07:56:20.297Z,7.28
2022-10-12T07:57:20.307Z,7.26
2022-10-12T07:58:20.282Z,7.40
2022-10-12T07:59:20.268Z,7.40
2022-10-12T08:00:20.273Z,7.42
2022-10-12T08:01:20.299Z,7.54
2022-10-12T08:02:20.259Z,7.49
2022-10-12T08:03:20.221Z,7.50
2022-10-12T08:04:20.214Z,7.49
2022-10-12T08:05:20.241Z,7.50
2022-10-12T08:06:20.192Z,7.57
2022-10-12T08:07:20.178Z,7.62
2022-10-12T08:08:20.168Z,7.62
2022-10-12T08:09:20.159Z,7.60
2022-10-12T08:10:20.212Z,7.68
2022-10-12T08:11:20.165Z,7.76
2022-10-12T08:12:20.126Z,7.69
2022-10-12T08:13:20.113Z,7.74
2022-10-12T08:14:20.114Z,7.73
2022-10-12T08:15:20.088Z,7.80
2022-10-12T08:16:20.121Z,7.77
2022-10-12T08:17:20.069Z,7.83
2022-10-12T08:18:20.057Z,7.80
2022-10-12T08:19:20.045Z,7.76
2022-10-12T08:20:20.098Z,7.88
2022-10-12T08:21:20.056Z,7.84
2022-10-12T08:22:20.016Z,7.84
2022-10-12T08:23:19.999Z,7.84
2022-10-12T08:24:19.988Z,7.99
2022-10-12T08:25:19.980Z,7.94
2022-10-12T08:26:20.003Z,7.99
2022-10-12T08:27:19.960Z,7.99
2022-10-12T08:28:19.964Z,8.04
2022-10-12T08:29:19.940Z,8.01
2022-10-12T08:30:19.926Z,8.06
2022-10-12T08:31:19.936Z,8.09
2022-10-12T08:32:19.902Z,8.17
2022-10-12T08:33:19.900Z,8.14
2022-10-12T08:34:19.883Z,8.20
2022-10-12T08:35:19.874Z,8.16
2022-10-12T08:36:19.885Z,8.20
2022-10-12T08:37:19.847Z,8.24
2022-10-12T08:38:19.839Z,8.26
2022-10-12T08:39:19.827Z,8.32
2022-10-12T08:40:19.822Z,8.29
2022-10-12T08:41:19.845Z,8.29
2022-10-12T08:42:19.827Z,8.35
2022-10-12T08:43:19.783Z,8.41
2022-10-12T08:44:19.778Z,8.41
2022-10-12T08:45:19.762Z,8.49
2022-10-12T08:46:19.780Z,8.46
2022-10-12T08:47:19.742Z,8.42
2022-10-12T08:48:19.731Z,8.47
2022-10-12T08:49:19.719Z,8.50
2022-10-12T08:50:19.706Z,8.44
2022-10-12T08:51:19.700Z,8.56
2022-10-12T08:52:19.716Z,8.60
2022-10-12T08:53:19.679Z,8.56
2022-10-12T08:54:19.665Z,8.62
2022-10-12T08:55:19.654Z,8.57
2022-10-12T08:56:19.639Z,8.57
2022-10-12T08:57:19.658Z,8.67
2022-10-12T08:58:19.640Z,8.72
2022-10-12T08:59:19.635Z,8.68
2022-10-12T09:00:19.696Z,8.74
2022-10-12T09:01:19.689Z,8.68
2022-10-12T09:02:19.626Z,8.71
2022-10-12T09:03:19.573Z,8.78
2022-10-12T09:04:19.584Z,8.81
2022-10-12T09:05:19.548Z,8.81
2022-10-12T09:06:19.537Z,8.86
2022-10-12T09:07:19.531Z,8.88
2022-10-12T09:08:19.513Z,8.89
2022-10-12T09:09:19.519Z,8.90
2022-10-12T09:10:19.491Z,8.88
2022-10-12T09:11:19.479Z,8.93
2022-10-12T09:12:19.472Z,8.98
2022-10-12T09:13:19.466Z,9.01
2022-10-12T09:14:19.495Z,9.01
2022-10-12T09:15:19.436Z,9.09
2022-10-12T09:16:19.429Z,9.06
2022-10-12T09:17:19.420Z,9.15
2022-10-12T09:18:19.403Z,9.12
2022-10-12T09:19:19.417Z,9.14
2022-10-12T09:20:19.380Z,9.14
2022-10-12T09:21:19.378Z,9.16
2022-10-12T09:22:19.365Z,9.16
2022-10-12T09:23:19.355Z,9.18
2022-10-12T09:24:19.361Z,9.22
2022-10-12T09:25:19.332Z,9.22
2022-10-12T09:26:19.319Z,9.27
2022-10-12T09:27:19.322Z,9.29
2022-10-12T09:28:19.322Z,9.33
2022-10-12T09:29:19.316Z,9.32
2022-10-12T09:30:19.294Z,9.34
2022-10-12T09:31:19.273Z,9.30
2022-10-12T09:32:19.252Z,9.34
2022-10-12T09:33:19.240Z,9.34
2022-10-12T09:34:19.593Z,9.42
2022-10-12T09:35:19.247Z,9.37
2022-10-12T09:36:19.208Z,9.48
2022-10-12T09:37:19.195Z,9.47
2022-10-12T09:38:19.189Z,9.45
2022-10-12T09:39:19.170Z,9.45
2022-10-12T09:40:19.188Z,9.47
2022-10-12T09:41:19.157Z,9.51
2022-10-12T09:42:19.144Z,9.52
2022-10-12T09:43:19.129Z,9.55
2022-10-12T09:44:19.148Z,9.55
2022-10-12T09:45:19.116Z,9.51
2022-10-12T09:46:19.127Z,9.62
2022-10-12T09:47:19.088Z,9.57
2022-10-12T09:48:19.083Z,9.60
2022-10-12T09:49:19.098Z,9.65
2022-10-12T09:50:19.050Z,9.59
2022-10-12T09:51:19.044Z,9.69
2022-10-12T09:52:19.060Z,9.75
2022-10-12T09:53:19.026Z,9.80
2022-10-12T09:54:19.013Z,9.73
2022-10-12T09:55:19.682Z,9.84
2022-10-12T09:56:18.995Z,9.87
2022-10-12T09:57:18.977Z,9.84
2022-10-12T09:58:18.970Z,9.87
2022-10-12T09:59:18.960Z,9.90
2022-10-12T10:00:19.492Z,9.94
2022-10-12T10:01:19.085Z,9.93
2022-10-12T10:02:18.949Z,9.98
2022-10-12T10:03:18.915Z,10.02
2022-10-12T10:04:18.905Z,9.98
2022-10-12T10:05:18.929Z,9.98
2022-10-12T10:06:18.884Z,10.02
2022-10-12T10:07:18.870Z,10.03
2022-10-12T10:08:18.892Z,10.06
2022-10-12T10:09:18.854Z,10.09
2022-10-12T10:10:19.442Z,10.08
2022-10-12T10:11:18.828Z,10.26
2022-10-12T10:12:18.819Z,10.26
2022-10-12T10:13:18.809Z,10.27
2022-10-12T10:14:18.804Z,10.24
2022-10-12T10:15:18.822Z,10.24
2022-10-12T10:16:18.776Z,10.27
2022-10-12T10:17:18.764Z,10.28
2022-10-12T10:18:18.769Z,10.45
2022-10-12T10:19:18.745Z,10.41
2022-10-12T10:20:19.201Z,10.41
2022-10-12T10:21:18.745Z,10.54
2022-10-12T10:22:18.748Z,10.45
2022-10-12T10:23:18.696Z,10.58
2022-10-12T10:24:18.694Z,10.64
2022-10-12T10:25:18.682Z,10.68
2022-10-12T10:27:18.657Z,10.76
2022-10-12T10:28:18.681Z,10.79
2022-10-12T10:29:18.636Z,10.90
2022-10-12T10:30:29.698Z,10.87
2022-10-12T10:31:19.613Z,10.85
2022-10-12T10:32:18.601Z,10.95
2022-10-12T10:33:18.619Z,11.05
2022-10-12T10:34:18.600Z,11.05
2022-10-12T10:35:18.571Z,11.03
2022-10-12T10:36:18.565Z,11.01
2022-10-12T10:37:18.551Z,11.18
2022-10-12T10:38:18.554Z,11.19
2022-10-12T10:39:18.528Z,11.20
2022-10-12T10:40:19.070Z,11.33
2022-10-12T10:41:18.538Z,11.41
2022-10-12T10:42:18.503Z,11.45
2022-10-12T10:43:18.508Z,11.49
2022-10-12T10:44:21.880Z,11.51
2022-10-12T10:45:18.825Z,11.55
2022-10-12T10:46:18.451Z,11.56
2022-10-12T10:47:18.438Z,11.70
2022-10-12T10:48:18.443Z,11.70
2022-10-12T10:49:18.445Z,11.74
2022-10-12T10:50:18.904Z,11.85
2022-10-12T10:51:18.423Z,11.88
2022-10-12T10:52:18.386Z,11.91
2022-10-12T10:53:18.372Z,11.85
2022-10-12T10:54:18.368Z,12.07
2022-10-12T10:55:18.357Z,12.07
2022-10-12T10:56:18.369Z,12.17
2022-10-12T10:57:18.330Z,12.22
2022-10-12T10:58:18.324Z,12.22
2022-10-12T10:59:18.312Z,12.33
2022-10-12T11:01:19.422Z,12.46
2022-10-12T11:02:18.283Z,12.53
2022-10-12T11:03:18.348Z,12.55
2022-10-12T11:04:18.253Z,12.61
2022-10-12T11:05:18.706Z,12.63
2022-10-12T11:06:18.256Z,12.86
2022-10-12T11:07:18.221Z,12.83
2022-10-12T11:08:18.216Z,12.86
2022-10-12T11:09:18.218Z,12.87
2022-10-12T11:10:18.211Z,12.98
2022-10-12T11:11:18.181Z,12.99
2022-10-12T11:12:18.205Z,13.13
2022-10-12T11:13:18.163Z,13.16
2022-10-12T11:14:18.173Z,13.23
2022-10-12T11:15:18.157Z,13.40
2022-10-12T11:16:18.127Z,13.46
2022-10-12T11:17:18.116Z,13.45
2022-10-12T11:18:18.106Z,13.57
2022-10-12T11:19:18.112Z,13.53
2022-10-12T11:20:19.904Z,13.61
2022-10-12T11:21:18.069Z,13.71
2022-10-12T11:22:18.080Z,13.86
2022-10-12T11:23:18.048Z,13.86
2022-10-12T11:24:18.059Z,13.88
2022-10-12T11:25:18.030Z,13.98
2022-10-12T11:26:18.016Z,14.04
2022-10-12T11:27:18.009Z,14.16
2022-10-12T11:28:18.053Z,14.28
2022-10-12T11:29:18.011Z,14.27
2022-10-12T11:30:17.983Z,14.31
2022-10-12T11:31:17.961Z,14.37
2022-10-12T11:32:22.523Z,14.44
2022-10-12T11:33:17.948Z,14.53
2022-10-12T11:34:17.968Z,14.64
2022-10-12T11:35:17.921Z,14.59
2022-10-12T11:36:17.909Z,14.71
2022-10-12T11:37:20.310Z,14.78
2022-10-12T11:38:17.907Z,14.92
2022-10-12T11:39:22.535Z,14.87
2022-10-12T11:40:19.211Z,15.03
2022-10-12T11:41:35.706Z,15.07
2022-10-12T11:42:22.874Z,15.10
2022-10-12T11:43:17.831Z,15.15
2022-10-12T11:44:17.849Z,15.14
2022-10-12T11:45:17.837Z,15.29
2022-10-12T11:46:17.798Z,15.36
2022-10-12T11:47:17.787Z,15.43
2022-10-12T11:48:17.780Z,15.54
2022-10-12T11:49:17.793Z,15.43
2022-10-12T11:50:17.790Z,15.48
2022-10-12T11:51:17.747Z,15.60
2022-10-12T11:52:17.742Z,15.65
2022-10-12T11:53:17.723Z,15.78
2022-10-12T11:54:17.742Z,15.83
2022-10-12T11:55:17.731Z,15.93
2022-10-12T11:56:17.692Z,16.00
2022-10-12T11:57:17.677Z,16.16
2022-10-12T11:58:17.670Z,16.05
2022-10-12T11:59:17.683Z,16.21
2022-10-12T12:00:17.680Z,16.22
2022-10-12T12:01:17.640Z,16.25
2022-10-12T12:02:17.751Z,16.42
2022-10-12T12:03:17.695Z,16.42
2022-10-12T12:04:40.752Z,16.44
2022-10-12T12:05:18.595Z,16.55
2022-10-12T12:06:17.592Z,16.62
2022-10-12T12:07:17.600Z,16.70
2022-10-12T12:08:17.583Z,16.70
2022-10-12T12:09:17.578Z,16.70
2022-10-12T12:10:17.563Z,16.80
2022-10-12T12:11:17.525Z,16.83
2022-10-12T12:12:17.515Z,16.91
2022-10-12T12:13:17.527Z,16.94
2022-10-12T12:14:17.499Z,17.02
2022-10-12T12:15:17.488Z,17.09
2022-10-12T12:16:17.474Z,17.19
2022-10-12T12:17:17.483Z,17.07
2022-10-12T12:18:17.466Z,17.24
2022-10-12T12:19:17.448Z,17.27
2022-10-12T12:20:17.443Z,17.32
2022-10-12T12:21:17.447Z,17.35
2022-10-12T12:22:17.449Z,17.47
2022-10-12T12:23:17.397Z,17.43
2022-10-12T12:24:17.384Z,17.47
2022-10-12T12:25:17.376Z,17.46
2022-10-12T12:26:17.643Z,17.50
2022-10-12T12:27:17.360Z,17.62
2022-10-12T12:28:17.409Z,17.62
2022-10-12T12:29:17.331Z,17.79
2022-10-12T12:30:17.328Z,17.87
2022-10-12T12:31:17.318Z,17.88
2022-10-12T12:32:17.297Z,17.88
2022-10-12T12:33:17.314Z,17.81
2022-10-12T12:34:17.281Z,17.91
2022-10-12T12:35:17.264Z,17.93
2022-10-12T12:36:17.258Z,18.02
2022-10-12T12:37:17.250Z,17.90
2022-10-12T12:38:17.276Z,18.03
2022-10-12T12:39:17.227Z,18.05
2022-10-12T12:40:17.212Z,18.05
2022-10-12T12:41:17.198Z,18.09
2022-10-12T12:42:17.278Z,18.11
2022-10-12T12:43:17.211Z,18.20
2022-10-12T12:44:17.171Z,18.12
2022-10-12T12:45:17.164Z,18.18
2022-10-12T12:46:17.157Z,18.31
2022-10-12T12:47:47.093Z,18.23
2022-10-12T12:48:20.613Z,18.24
2022-10-12T12:49:17.132Z,18.20
2022-10-12T12:50:17.109Z,18.24
2022-10-12T12:51:17.102Z,18.27
2022-10-12T12:52:17.087Z,18.26
2022-10-12T12:53:17.072Z,18.30
2022-10-12T12:54:17.081Z,18.28
2022-10-12T12:55:17.058Z,18.30
2022-10-12T12:56:17.038Z,18.33
2022-10-12T12:57:17.058Z,18.38
2022-10-12T12:58:17.036Z,18.36
2022-10-12T12:59:17.002Z,18.31
2022-10-12T13:00:17.160Z,18.31
2022-10-12T13:01:17.022Z,18.38
2022-10-12T13:02:16.977Z,18.34
2022-10-12T13:03:17.044Z,18.36
2022-10-12T13:04:16.956Z,18.34
2022-10-12T13:05:16.944Z,18.49
2022-10-12T13:06:16.932Z,18.34
2022-10-12T13:07:16.921Z,18.39
2022-10-12T13:08:16.933Z,18.45
2022-10-12T13:09:16.896Z,18.48
2022-10-12T13:10:16.891Z,18.42
2022-10-12T13:11:16.889Z,18.54
2022-10-12T13:12:16.866Z,18.56
2022-10-12T13:13:16.884Z,18.57
2022-10-12T13:14:16.845Z,18.64
2022-10-12T13:15:16.831Z,18.75